sensor_id;sensor_type;location;lat;lon;timestamp;temperature;humidity
792;DHT22;379;49.022;12.148;2023-07-13T00:01:39;19.00;99.90
792;DHT22;379;49.022;12.148;2023-07-13T00:04:06;19.00;99.90
792;DHT22;379;49.022;12.148;2023-07-13T00:06:33;18.90;99.90
792;DHT22;379;49.022;12.148;2023-07-13T00:09:00;18.90;99.90
792;DHT22;379;49.022;12.148;2023-07-13T00:11:28;18.90;99.90
792;DHT22;379;49.022;12.148;2023-07-13T00:13:55;18.90;99.90
792;DHT22;379;49.022;12.148;2023-07-13T00:16:23;18.90;99.90
792;DHT22;379;49.022;12.148;2023-07-13T00:18:50;19.00;99.90
792;DHT22;379;49.022;12.148;2023-07-13T00:21:18;18.90;99.90
792;DHT22;379;49.022;12.148;2023-07-13T00:23:44;18.90;99.90
792;DHT22;379;49.022;12.148;2023-07-13T00:26:12;18.80;99.90
792;DHT22;379;49.022;12.148;2023-07-13T00:28:39;18.80;99.90
792;DHT22;379;49.022;12.148;2023-07-13T00:31:07;18.80;99.90
792;DHT22;379;49.022;12.148;2023-07-13T00:33:36;18.80;99.90
792;DHT22;379;49.022;12.148;2023-07-13T00:36:03;18.80;99.90
792;DHT22;379;49.022;12.148;2023-07-13T00:38:30;18.80;99.90
792;DHT22;379;49.022;12.148;2023-07-13T00:40:57;18.80;99.90
792;DHT22;379;49.022;12.148;2023-07-13T00:43:26;18.70;99.90
792;DHT22;379;49.022;12.148;2023-07-13T00:46:21;18.60;99.90
792;DHT22;379;49.022;12.148;2023-07-13T00:48:50;18.60;99.90
792;DHT22;379;49.022;12.148;2023-07-13T00:51:20;18.50;99.90
792;DHT22;379;49.022;12.148;2023-07-13T00:53:49;18.50;99.90
792;DHT22;379;49.022;12.148;2023-07-13T00:56:16;18.50;99.90
792;DHT22;379;49.022;12.148;2023-07-13T00:58:43;18.50;99.90
792;DHT22;379;49.022;12.148;2023-07-13T01:01:10;18.50;99.90
792;DHT22;379;49.022;12.148;2023-07-13T01:03:38;18.50;99.90
792;DHT22;379;49.022;12.148;2023-07-13T01:06:07;18.50;99.90
792;DHT22;379;49.022;12.148;2023-07-13T01:08:34;18.50;99.90
792;DHT22;379;49.022;12.148;2023-07-13T01:11:01;18.60;99.90
792;DHT22;379;49.022;12.148;2023-07-13T01:13:27;18.60;99.90
792;DHT22;379;49.022;12.148;2023-07-13T01:15:58;18.60;99.90
792;DHT22;379;49.022;12.148;2023-07-13T01:18:28;18.60;99.90
792;DHT22;379;49.022;12.148;2023-07-13T01:20:59;18.60;99.90
792;DHT22;379;49.022;12.148;2023-07-13T01:23:27;18.60;99.90
792;DHT22;379;49.022;12.148;2023-07-13T01:25:54;18.60;99.90
792;DHT22;379;49.022;12.148;2023-07-13T01:28:22;18.60;99.90
792;DHT22;379;49.022;12.148;2023-07-13T01:30:53;18.70;99.90
792;DHT22;379;49.022;12.148;2023-07-13T01:33:20;18.60;99.90
792;DHT22;379;49.022;12.148;2023-07-13T01:35:47;18.60;99.90
792;DHT22;379;49.022;12.148;2023-07-13T01:38:16;18.60;99.90
792;DHT22;379;49.022;12.148;2023-07-13T01:40:44;18.60;99.90
792;DHT22;379;49.022;12.148;2023-07-13T01:43:11;18.60;99.90
792;DHT22;379;49.022;12.148;2023-07-13T01:45:38;18.50;99.90
792;DHT22;379;49.022;12.148;2023-07-13T01:48:05;18.50;99.90
792;DHT22;379;49.022;12.148;2023-07-13T01:50:33;18.50;99.90
792;DHT22;379;49.022;12.148;2023-07-13T01:53:00;18.40;99.90
792;DHT22;379;49.022;12.148;2023-07-13T01:55:29;18.40;99.90
792;DHT22;379;49.022;12.148;2023-07-13T01:57:56;18.30;99.90
792;DHT22;379;49.022;12.148;2023-07-13T02:00:23;18.30;99.90
792;DHT22;379;49.022;12.148;2023-07-13T02:02:50;18.30;99.90
792;DHT22;379;49.022;12.148;2023-07-13T02:05:17;18.30;99.90
792;DHT22;379;49.022;12.148;2023-07-13T02:07:43;18.30;99.90
792;DHT22;379;49.022;12.148;2023-07-13T02:10:11;18.40;99.90
792;DHT22;379;49.022;12.148;2023-07-13T02:12:39;18.40;99.90
792;DHT22;379;49.022;12.148;2023-07-13T02:15:07;18.40;99.90
792;DHT22;379;49.022;12.148;2023-07-13T02:17:35;18.40;99.90
792;DHT22;379;49.022;12.148;2023-07-13T02:20:02;18.30;99.90
792;DHT22;379;49.022;12.148;2023-07-13T02:22:30;18.30;99.90
792;DHT22;379;49.022;12.148;2023-07-13T02:24:57;18.30;99.90
792;DHT22;379;49.022;12.148;2023-07-13T02:27:23;18.20;99.90
792;DHT22;379;49.022;12.148;2023-07-13T02:29:52;18.20;99.90
792;DHT22;379;49.022;12.148;2023-07-13T02:32:18;18.10;99.90
792;DHT22;379;49.022;12.148;2023-07-13T02:34:45;18.00;99.90
792;DHT22;379;49.022;12.148;2023-07-13T02:37:12;17.90;99.90
792;DHT22;379;49.022;12.148;2023-07-13T02:39:39;17.80;99.90
792;DHT22;379;49.022;12.148;2023-07-13T02:42:06;17.70;99.90
792;DHT22;379;49.022;12.148;2023-07-13T02:44:33;17.70;99.90
792;DHT22;379;49.022;12.148;2023-07-13T02:47:01;17.60;99.90
792;DHT22;379;49.022;12.148;2023-07-13T02:49:28;17.50;99.90
792;DHT22;379;49.022;12.148;2023-07-13T02:51:55;17.50;99.90
792;DHT22;379;49.022;12.148;2023-07-13T02:54:21;17.50;99.90
792;DHT22;379;49.022;12.148;2023-07-13T02:56:48;17.40;99.90
792;DHT22;379;49.022;12.148;2023-07-13T02:59:15;17.40;99.90
792;DHT22;379;49.022;12.148;2023-07-13T03:01:42;17.40;99.90
792;DHT22;379;49.022;12.148;2023-07-13T03:04:10;17.30;99.90
792;DHT22;379;49.022;12.148;2023-07-13T03:06:37;17.30;99.90
792;DHT22;379;49.022;12.148;2023-07-13T03:09:04;17.20;99.90
792;DHT22;379;49.022;12.148;2023-07-13T03:11:31;17.20;99.90
792;DHT22;379;49.022;12.148;2023-07-13T03:13:58;17.10;99.90
792;DHT22;379;49.022;12.148;2023-07-13T03:16:25;17.10;99.90
792;DHT22;379;49.022;12.148;2023-07-13T03:18:52;17.00;99.90
792;DHT22;379;49.022;12.148;2023-07-13T03:21:20;17.00;99.90
792;DHT22;379;49.022;12.148;2023-07-13T03:23:47;16.90;99.90
792;DHT22;379;49.022;12.148;2023-07-13T03:26:16;16.90;99.90
792;DHT22;379;49.022;12.148;2023-07-13T03:28:46;16.90;99.90
792;DHT22;379;49.022;12.148;2023-07-13T03:31:15;16.90;99.90
792;DHT22;379;49.022;12.148;2023-07-13T03:33:42;16.80;99.90
792;DHT22;379;49.022;12.148;2023-07-13T03:36:13;16.80;99.90
792;DHT22;379;49.022;12.148;2023-07-13T03:38:41;16.80;99.90
792;DHT22;379;49.022;12.148;2023-07-13T03:41:08;16.80;99.90
792;DHT22;379;49.022;12.148;2023-07-13T03:43:34;16.80;99.90
792;DHT22;379;49.022;12.148;2023-07-13T03:46:01;16.70;99.90
792;DHT22;379;49.022;12.148;2023-07-13T03:48:28;16.70;99.90
792;DHT22;379;49.022;12.148;2023-07-13T03:50:54;16.70;99.90
792;DHT22;379;49.022;12.148;2023-07-13T03:53:21;16.70;99.90
792;DHT22;379;49.022;12.148;2023-07-13T03:55:49;16.80;99.90
792;DHT22;379;49.022;12.148;2023-07-13T03:58:32;16.80;99.90
792;DHT22;379;49.022;12.148;2023-07-13T04:01:00;16.80;99.90
792;DHT22;379;49.022;12.148;2023-07-13T04:03:28;16.90;99.90
792;DHT22;379;49.022;12.148;2023-07-13T04:05:55;17.00;99.90
792;DHT22;379;49.022;12.148;2023-07-13T04:08:25;17.00;99.90
792;DHT22;379;49.022;12.148;2023-07-13T04:10:54;17.10;99.90
792;DHT22;379;49.022;12.148;2023-07-13T04:13:20;17.10;99.90
792;DHT22;379;49.022;12.148;2023-07-13T04:15:47;17.20;99.90
792;DHT22;379;49.022;12.148;2023-07-13T04:18:14;17.30;99.90
792;DHT22;379;49.022;12.148;2023-07-13T04:20:41;17.40;99.90
792;DHT22;379;49.022;12.148;2023-07-13T04:23:07;17.50;99.90
792;DHT22;379;49.022;12.148;2023-07-13T04:25:34;17.70;99.90
792;DHT22;379;49.022;12.148;2023-07-13T04:28:03;17.80;99.90
792;DHT22;379;49.022;12.148;2023-07-13T04:30:30;18.10;99.90
792;DHT22;379;49.022;12.148;2023-07-13T04:32:56;18.40;99.90
792;DHT22;379;49.022;12.148;2023-07-13T04:35:23;18.70;99.90
792;DHT22;379;49.022;12.148;2023-07-13T04:37:50;19.00;99.90
792;DHT22;379;49.022;12.148;2023-07-13T04:40:18;19.30;99.90
792;DHT22;379;49.022;12.148;2023-07-13T04:42:44;19.70;99.90
792;DHT22;379;49.022;12.148;2023-07-13T04:45:13;19.90;99.90
792;DHT22;379;49.022;12.148;2023-07-13T04:47:40;20.00;99.90
792;DHT22;379;49.022;12.148;2023-07-13T04:50:09;20.10;99.90
792;DHT22;379;49.022;12.148;2023-07-13T04:52:36;20.00;99.90
792;DHT22;379;49.022;12.148;2023-07-13T04:55:04;19.90;99.90
792;DHT22;379;49.022;12.148;2023-07-13T04:57:32;19.80;99.90
792;DHT22;379;49.022;12.148;2023-07-13T04:59:59;19.70;99.90
792;DHT22;379;49.022;12.148;2023-07-13T05:02:27;19.60;99.90
792;DHT22;379;49.022;12.148;2023-07-13T05:04:56;19.60;99.90
792;DHT22;379;49.022;12.148;2023-07-13T05:07:24;19.60;99.90
792;DHT22;379;49.022;12.148;2023-07-13T05:09:51;19.60;99.90
792;DHT22;379;49.022;12.148;2023-07-13T05:12:18;19.70;99.90
792;DHT22;379;49.022;12.148;2023-07-13T05:14:45;19.70;99.90
792;DHT22;379;49.022;12.148;2023-07-13T05:17:12;19.60;99.90
792;DHT22;379;49.022;12.148;2023-07-13T05:19:40;19.60;99.90
792;DHT22;379;49.022;12.148;2023-07-13T05:22:06;19.60;99.90
792;DHT22;379;49.022;12.148;2023-07-13T05:24:33;19.60;99.90
792;DHT22;379;49.022;12.148;2023-07-13T05:27:00;19.60;99.90
792;DHT22;379;49.022;12.148;2023-07-13T05:29:27;19.60;99.90
792;DHT22;379;49.022;12.148;2023-07-13T05:31:54;20.00;99.90
792;DHT22;379;49.022;12.148;2023-07-13T05:34:20;20.70;99.90
792;DHT22;379;49.022;12.148;2023-07-13T05:36:49;21.50;99.90
792;DHT22;379;49.022;12.148;2023-07-13T05:39:15;22.20;99.90
792;DHT22;379;49.022;12.148;2023-07-13T05:41:42;22.80;97.30
792;DHT22;379;49.022;12.148;2023-07-13T05:44:09;23.30;93.40
792;DHT22;379;49.022;12.148;2023-07-13T05:46:36;23.60;91.20
792;DHT22;379;49.022;12.148;2023-07-13T05:49:02;23.70;90.00
792;DHT22;379;49.022;12.148;2023-07-13T05:51:29;23.80;86.50
792;DHT22;379;49.022;12.148;2023-07-13T05:53:57;23.80;84.20
792;DHT22;379;49.022;12.148;2023-07-13T05:56:24;23.80;79.30
792;DHT22;379;49.022;12.148;2023-07-13T05:58:52;23.90;78.60
792;DHT22;379;49.022;12.148;2023-07-13T06:01:18;24.20;77.60
792;DHT22;379;49.022;12.148;2023-07-13T06:03:46;24.20;75.40
792;DHT22;379;49.022;12.148;2023-07-13T06:06:13;24.20;75.00
792;DHT22;379;49.022;12.148;2023-07-13T06:08:40;24.10;73.50
792;DHT22;379;49.022;12.148;2023-07-13T06:11:12;23.70;68.70
792;DHT22;379;49.022;12.148;2023-07-13T06:13:40;23.20;71.60
792;DHT22;379;49.022;12.148;2023-07-13T06:16:07;22.80;70.20
792;DHT22;379;49.022;12.148;2023-07-13T06:18:35;22.50;72.70
792;DHT22;379;49.022;12.148;2023-07-13T06:21:06;22.60;73.60
792;DHT22;379;49.022;12.148;2023-07-13T06:23:32;23.10;73.80
792;DHT22;379;49.022;12.148;2023-07-13T06:25:59;23.80;71.00
792;DHT22;379;49.022;12.148;2023-07-13T06:28:28;24.50;70.90
792;DHT22;379;49.022;12.148;2023-07-13T06:30:55;25.20;69.10
792;DHT22;379;49.022;12.148;2023-07-13T06:33:22;25.50;66.60
792;DHT22;379;49.022;12.148;2023-07-13T06:35:49;25.70;65.20
792;DHT22;379;49.022;12.148;2023-07-13T06:38:15;25.80;65.10
792;DHT22;379;49.022;12.148;2023-07-13T06:40:42;25.90;64.00
792;DHT22;379;49.022;12.148;2023-07-13T06:43:09;25.70;63.70
792;DHT22;379;49.022;12.148;2023-07-13T06:45:41;25.60;63.20
792;DHT22;379;49.022;12.148;2023-07-13T06:48:08;25.70;63.40
792;DHT22;379;49.022;12.148;2023-07-13T06:50:35;25.70;62.50
792;DHT22;379;49.022;12.148;2023-07-13T06:53:01;25.80;62.70
792;DHT22;379;49.022;12.148;2023-07-13T06:55:28;26.10;60.80
792;DHT22;379;49.022;12.148;2023-07-13T06:57:55;26.80;60.00
792;DHT22;379;49.022;12.148;2023-07-13T07:00:22;27.80;57.90
792;DHT22;379;49.022;12.148;2023-07-13T07:02:50;28.60;57.20
792;DHT22;379;49.022;12.148;2023-07-13T07:05:17;28.80;54.90
792;DHT22;379;49.022;12.148;2023-07-13T07:07:47;29.10;53.70
792;DHT22;379;49.022;12.148;2023-07-13T07:10:14;29.60;51.80
792;DHT22;379;49.022;12.148;2023-07-13T07:12:40;30.00;51.20
792;DHT22;379;49.022;12.148;2023-07-13T07:15:08;30.30;50.20
792;DHT22;379;49.022;12.148;2023-07-13T07:17:35;30.70;48.90
792;DHT22;379;49.022;12.148;2023-07-13T07:20:04;31.10;48.00
792;DHT22;379;49.022;12.148;2023-07-13T07:22:31;31.70;48.10
792;DHT22;379;49.022;12.148;2023-07-13T07:24:58;32.00;47.00
792;DHT22;379;49.022;12.148;2023-07-13T07:27:25;32.20;45.90
792;DHT22;379;49.022;12.148;2023-07-13T07:29:51;32.20;44.60
792;DHT22;379;49.022;12.148;2023-07-13T07:32:19;32.10;45.50
792;DHT22;379;49.022;12.148;2023-07-13T07:34:46;32.10;45.60
792;DHT22;379;49.022;12.148;2023-07-13T07:37:14;32.30;44.60
792;DHT22;379;49.022;12.148;2023-07-13T07:39:42;32.60;43.70
792;DHT22;379;49.022;12.148;2023-07-13T07:42:09;33.10;43.00
792;DHT22;379;49.022;12.148;2023-07-13T07:44:36;33.30;41.70
792;DHT22;379;49.022;12.148;2023-07-13T07:47:03;33.50;41.80
792;DHT22;379;49.022;12.148;2023-07-13T07:49:30;33.60;42.10
792;DHT22;379;49.022;12.148;2023-07-13T07:51:57;32.70;41.40
792;DHT22;379;49.022;12.148;2023-07-13T07:54:25;31.50;42.30
792;DHT22;379;49.022;12.148;2023-07-13T07:56:51;30.40;43.60
792;DHT22;379;49.022;12.148;2023-07-13T07:59:19;29.80;45.40
792;DHT22;379;49.022;12.148;2023-07-13T08:01:46;29.70;46.70
792;DHT22;379;49.022;12.148;2023-07-13T08:04:13;29.30;45.70
792;DHT22;379;49.022;12.148;2023-07-13T08:06:40;28.90;46.90
792;DHT22;379;49.022;12.148;2023-07-13T08:09:06;28.70;48.70
792;DHT22;379;49.022;12.148;2023-07-13T08:11:35;29.00;48.40
792;DHT22;379;49.022;12.148;2023-07-13T08:14:02;29.20;48.30
792;DHT22;379;49.022;12.148;2023-07-13T08:16:29;29.30;48.40
792;DHT22;379;49.022;12.148;2023-07-13T08:18:55;29.20;47.20
792;DHT22;379;49.022;12.148;2023-07-13T08:21:22;29.10;47.60
792;DHT22;379;49.022;12.148;2023-07-13T08:23:49;28.90;47.60
792;DHT22;379;49.022;12.148;2023-07-13T08:26:16;28.80;48.80
792;DHT22;379;49.022;12.148;2023-07-13T08:28:44;28.60;47.80
792;DHT22;379;49.022;12.148;2023-07-13T08:31:10;28.30;47.00
792;DHT22;379;49.022;12.148;2023-07-13T08:33:37;28.00;46.90
792;DHT22;379;49.022;12.148;2023-07-13T08:36:06;27.80;47.60
792;DHT22;379;49.022;12.148;2023-07-13T08:38:33;27.50;48.00
792;DHT22;379;49.022;12.148;2023-07-13T08:41:09;27.30;48.00
792;DHT22;379;49.022;12.148;2023-07-13T08:43:37;27.00;45.60
792;DHT22;379;49.022;12.148;2023-07-13T08:46:09;26.70;48.40
792;DHT22;379;49.022;12.148;2023-07-13T08:48:42;26.60;50.40
792;DHT22;379;49.022;12.148;2023-07-13T08:51:31;26.80;50.30
792;DHT22;379;49.022;12.148;2023-07-13T08:54:02;27.00;50.90
792;DHT22;379;49.022;12.148;2023-07-13T08:56:31;27.00;49.90
792;DHT22;379;49.022;12.148;2023-07-13T08:59:01;27.00;50.20
792;DHT22;379;49.022;12.148;2023-07-13T09:01:45;27.20;49.90
792;DHT22;379;49.022;12.148;2023-07-13T09:04:16;27.20;47.30
792;DHT22;379;49.022;12.148;2023-07-13T09:06:55;26.70;43.00
792;DHT22;379;49.022;12.148;2023-07-13T09:09:41;26.50;44.70
792;DHT22;379;49.022;12.148;2023-07-13T09:12:16;27.20;47.70
792;DHT22;379;49.022;12.148;2023-07-13T09:14:46;28.10;46.40
792;DHT22;379;49.022;12.148;2023-07-13T09:17:18;28.70;45.30
792;DHT22;379;49.022;12.148;2023-07-13T09:19:50;28.90;44.40
792;DHT22;379;49.022;12.148;2023-07-13T09:22:20;28.70;41.20
792;DHT22;379;49.022;12.148;2023-07-13T09:24:53;28.10;41.50
792;DHT22;379;49.022;12.148;2023-07-13T09:27:23;27.30;43.70
792;DHT22;379;49.022;12.148;2023-07-13T09:29:57;27.10;46.20
792;DHT22;379;49.022;12.148;2023-07-13T09:32:27;27.30;46.90
792;DHT22;379;49.022;12.148;2023-07-13T09:34:55;27.40;46.70
792;DHT22;379;49.022;12.148;2023-07-13T09:37:27;27.20;46.60
792;DHT22;379;49.022;12.148;2023-07-13T09:39:56;27.30;47.40
792;DHT22;379;49.022;12.148;2023-07-13T09:42:25;27.40;47.80
792;DHT22;379;49.022;12.148;2023-07-13T09:44:55;27.50;48.40
792;DHT22;379;49.022;12.148;2023-07-13T09:47:23;27.30;47.30
792;DHT22;379;49.022;12.148;2023-07-13T09:49:58;27.20;48.00
792;DHT22;379;49.022;12.148;2023-07-13T09:52:26;26.90;44.60
792;DHT22;379;49.022;12.148;2023-07-13T09:54:54;26.30;45.00
792;DHT22;379;49.022;12.148;2023-07-13T09:57:25;26.10;47.50
792;DHT22;379;49.022;12.148;2023-07-13T09:59:54;26.00;43.80
792;DHT22;379;49.022;12.148;2023-07-13T10:02:27;25.90;46.70
792;DHT22;379;49.022;12.148;2023-07-13T10:05:01;26.00;47.50
792;DHT22;379;49.022;12.148;2023-07-13T10:07:29;26.20;46.10
792;DHT22;379;49.022;12.148;2023-07-13T10:09:58;26.30;44.80
792;DHT22;379;49.022;12.148;2023-07-13T10:12:27;26.50;46.20
792;DHT22;379;49.022;12.148;2023-07-13T10:14:55;26.80;46.20
792;DHT22;379;49.022;12.148;2023-07-13T10:17:28;27.00;45.50
792;DHT22;379;49.022;12.148;2023-07-13T10:19:59;27.10;45.80
792;DHT22;379;49.022;12.148;2023-07-13T10:22:37;27.30;44.80
792;DHT22;379;49.022;12.148;2023-07-13T10:25:14;27.00;41.30
792;DHT22;379;49.022;12.148;2023-07-13T10:27:43;26.60;42.70
792;DHT22;379;49.022;12.148;2023-07-13T10:30:15;26.50;41.80
792;DHT22;379;49.022;12.148;2023-07-13T10:32:43;26.60;43.90
792;DHT22;379;49.022;12.148;2023-07-13T10:35:14;27.10;44.70
792;DHT22;379;49.022;12.148;2023-07-13T10:37:47;27.50;41.70
792;DHT22;379;49.022;12.148;2023-07-13T10:40:19;27.80;42.60
792;DHT22;379;49.022;12.148;2023-07-13T10:42:48;28.20;43.10
792;DHT22;379;49.022;12.148;2023-07-13T10:45:20;28.40;42.10
792;DHT22;379;49.022;12.148;2023-07-13T10:47:48;28.40;41.40
792;DHT22;379;49.022;12.148;2023-07-13T10:50:19;28.30;41.60
792;DHT22;379;49.022;12.148;2023-07-13T10:52:48;28.40;41.80
792;DHT22;379;49.022;12.148;2023-07-13T10:55:33;28.30;41.40
792;DHT22;379;49.022;12.148;2023-07-13T10:58:02;28.30;42.60
792;DHT22;379;49.022;12.148;2023-07-13T11:00:32;28.20;42.50
792;DHT22;379;49.022;12.148;2023-07-13T11:03:14;28.10;42.60
792;DHT22;379;49.022;12.148;2023-07-13T11:05:43;28.00;42.50
792;DHT22;379;49.022;12.148;2023-07-13T11:08:16;27.80;42.70
792;DHT22;379;49.022;12.148;2023-07-13T11:10:48;27.60;43.00
792;DHT22;379;49.022;12.148;2023-07-13T11:13:38;27.40;42.20
792;DHT22;379;49.022;12.148;2023-07-13T11:16:35;27.10;42.70
792;DHT22;379;49.022;12.148;2023-07-13T11:22:22;27.00;43.60
792;DHT22;379;49.022;12.148;2023-07-13T11:24:58;26.90;42.20
792;DHT22;379;49.022;12.148;2023-07-13T11:27:36;26.60;42.40
792;DHT22;379;49.022;12.148;2023-07-13T11:30:24;26.30;42.80
792;DHT22;379;49.022;12.148;2023-07-13T11:33:02;26.00;42.50
792;DHT22;379;49.022;12.148;2023-07-13T11:35:33;25.70;40.30
792;DHT22;379;49.022;12.148;2023-07-13T11:38:03;25.50;40.00
792;DHT22;379;49.022;12.148;2023-07-13T11:40:34;25.30;41.10
792;DHT22;379;49.022;12.148;2023-07-13T11:43:02;25.10;41.20
792;DHT22;379;49.022;12.148;2023-07-13T11:45:28;25.30;43.60
792;DHT22;379;49.022;12.148;2023-07-13T11:47:55;25.50;44.00
792;DHT22;379;49.022;12.148;2023-07-13T11:50:25;25.70;43.80
792;DHT22;379;49.022;12.148;2023-07-13T11:52:54;25.90;44.40
792;DHT22;379;49.022;12.148;2023-07-13T11:55:23;26.00;43.20
792;DHT22;379;49.022;12.148;2023-07-13T11:57:51;26.10;44.90
792;DHT22;379;49.022;12.148;2023-07-13T12:00:25;26.10;42.50
792;DHT22;379;49.022;12.148;2023-07-13T12:02:55;26.10;43.70
792;DHT22;379;49.022;12.148;2023-07-13T12:05:22;26.20;44.10
792;DHT22;379;49.022;12.148;2023-07-13T12:07:51;26.30;45.10
792;DHT22;379;49.022;12.148;2023-07-13T12:10:21;26.40;42.80
792;DHT22;379;49.022;12.148;2023-07-13T12:12:52;26.40;42.60
792;DHT22;379;49.022;12.148;2023-07-13T12:15:20;26.30;39.60
792;DHT22;379;49.022;12.148;2023-07-13T12:17:49;26.00;39.10
792;DHT22;379;49.022;12.148;2023-07-13T12:20:20;26.00;42.10
792;DHT22;379;49.022;12.148;2023-07-13T12:22:49;26.10;43.00
792;DHT22;379;49.022;12.148;2023-07-13T12:25:17;26.20;42.70
792;DHT22;379;49.022;12.148;2023-07-13T12:27:47;26.30;42.40
792;DHT22;379;49.022;12.148;2023-07-13T12:30:26;26.40;42.10
792;DHT22;379;49.022;12.148;2023-07-13T12:32:56;26.60;42.60
792;DHT22;379;49.022;12.148;2023-07-13T12:35:24;26.60;43.40
792;DHT22;379;49.022;12.148;2023-07-13T12:37:52;26.70;42.60
792;DHT22;379;49.022;12.148;2023-07-13T12:40:21;26.70;43.10
792;DHT22;379;49.022;12.148;2023-07-13T12:42:49;26.70;43.10
792;DHT22;379;49.022;12.148;2023-07-13T12:45:22;26.60;42.10
792;DHT22;379;49.022;12.148;2023-07-13T12:47:55;26.50;37.50
792;DHT22;379;49.022;12.148;2023-07-13T12:50:30;26.20;38.10
792;DHT22;379;49.022;12.148;2023-07-13T12:53:01;26.10;41.00
792;DHT22;379;49.022;12.148;2023-07-13T12:55:29;26.20;41.40
792;DHT22;379;49.022;12.148;2023-07-13T12:57:59;26.00;37.10
792;DHT22;379;49.022;12.148;2023-07-13T13:00:30;25.90;36.70
792;DHT22;379;49.022;12.148;2023-07-13T13:03:03;25.80;38.20
792;DHT22;379;49.022;12.148;2023-07-13T13:05:32;25.70;38.80
792;DHT22;379;49.022;12.148;2023-07-13T13:08:00;25.80;40.70
792;DHT22;379;49.022;12.148;2023-07-13T13:10:27;25.90;39.00
792;DHT22;379;49.022;12.148;2023-07-13T13:12:54;26.10;40.60
792;DHT22;379;49.022;12.148;2023-07-13T13:15:21;26.10;37.60
792;DHT22;379;49.022;12.148;2023-07-13T13:17:49;26.10;39.70
792;DHT22;379;49.022;12.148;2023-07-13T13:20:19;26.20;40.90
792;DHT22;379;49.022;12.148;2023-07-13T13:22:46;26.30;40.50
792;DHT22;379;49.022;12.148;2023-07-13T13:25:14;26.40;40.30
792;DHT22;379;49.022;12.148;2023-07-13T13:27:42;26.50;41.80
792;DHT22;379;49.022;12.148;2023-07-13T13:30:11;26.60;40.30
792;DHT22;379;49.022;12.148;2023-07-13T13:32:38;26.60;36.20
792;DHT22;379;49.022;12.148;2023-07-13T13:35:08;26.60;38.00
792;DHT22;379;49.022;12.148;2023-07-13T13:37:40;26.50;36.20
792;DHT22;379;49.022;12.148;2023-07-13T13:40:14;26.40;35.80
792;DHT22;379;49.022;12.148;2023-07-13T13:42:42;26.40;37.40
792;DHT22;379;49.022;12.148;2023-07-13T13:45:10;26.70;39.00
792;DHT22;379;49.022;12.148;2023-07-13T13:47:38;27.00;38.80
792;DHT22;379;49.022;12.148;2023-07-13T13:50:12;27.00;34.20
792;DHT22;379;49.022;12.148;2023-07-13T13:52:41;26.90;34.00
792;DHT22;379;49.022;12.148;2023-07-13T13:55:18;26.70;35.70
792;DHT22;379;49.022;12.148;2023-07-13T13:57:46;26.80;37.70
792;DHT22;379;49.022;12.148;2023-07-13T14:00:14;27.00;37.30
792;DHT22;379;49.022;12.148;2023-07-13T14:02:44;27.20;35.60
792;DHT22;379;49.022;12.148;2023-07-13T14:05:15;27.40;36.60
792;DHT22;379;49.022;12.148;2023-07-13T14:07:46;27.50;33.60
792;DHT22;379;49.022;12.148;2023-07-13T14:10:15;27.30;34.10
792;DHT22;379;49.022;12.148;2023-07-13T14:12:44;27.60;36.20
792;DHT22;379;49.022;12.148;2023-07-13T14:15:14;27.60;34.60
792;DHT22;379;49.022;12.148;2023-07-13T14:17:44;27.50;33.30
792;DHT22;379;49.022;12.148;2023-07-13T14:20:11;27.70;36.50
792;DHT22;379;49.022;12.148;2023-07-13T14:22:39;27.70;34.10
792;DHT22;379;49.022;12.148;2023-07-13T14:25:08;27.70;32.50
792;DHT22;379;49.022;12.148;2023-07-13T14:27:35;27.60;32.90
792;DHT22;379;49.022;12.148;2023-07-13T14:30:02;27.60;33.60
792;DHT22;379;49.022;12.148;2023-07-13T14:32:30;27.80;34.00
792;DHT22;379;49.022;12.148;2023-07-13T14:34:57;27.70;32.50
792;DHT22;379;49.022;12.148;2023-07-13T14:37:23;27.60;33.00
792;DHT22;379;49.022;12.148;2023-07-13T14:39:52;27.50;32.40
792;DHT22;379;49.022;12.148;2023-07-13T14:42:21;27.50;32.90
792;DHT22;379;49.022;12.148;2023-07-13T14:44:47;27.60;32.50
792;DHT22;379;49.022;12.148;2023-07-13T14:47:15;27.50;34.10
792;DHT22;379;49.022;12.148;2023-07-13T14:49:43;27.70;36.60
792;DHT22;379;49.022;12.148;2023-07-13T14:52:13;27.80;35.10
792;DHT22;379;49.022;12.148;2023-07-13T14:54:41;27.60;32.70
792;DHT22;379;49.022;12.148;2023-07-13T14:57:12;27.30;33.30
792;DHT22;379;49.022;12.148;2023-07-13T14:59:40;27.00;33.10
792;DHT22;379;49.022;12.148;2023-07-13T15:02:17;26.70;33.40
792;DHT22;379;49.022;12.148;2023-07-13T15:04:44;26.50;34.10
792;DHT22;379;49.022;12.148;2023-07-13T15:07:12;26.50;35.70
792;DHT22;379;49.022;12.148;2023-07-13T15:09:41;26.80;37.40
792;DHT22;379;49.022;12.148;2023-07-13T15:12:08;27.00;38.00
792;DHT22;379;49.022;12.148;2023-07-13T15:14:35;27.20;36.70
792;DHT22;379;49.022;12.148;2023-07-13T15:17:03;27.30;36.30
792;DHT22;379;49.022;12.148;2023-07-13T15:19:31;27.20;34.40
792;DHT22;379;49.022;12.148;2023-07-13T15:21:58;27.20;34.90
792;DHT22;379;49.022;12.148;2023-07-13T15:24:25;27.20;36.40
792;DHT22;379;49.022;12.148;2023-07-13T15:26:52;27.20;35.60
792;DHT22;379;49.022;12.148;2023-07-13T15:29:19;27.10;32.70
792;DHT22;379;49.022;12.148;2023-07-13T15:31:46;26.90;34.70
792;DHT22;379;49.022;12.148;2023-07-13T15:34:20;26.70;34.00
792;DHT22;379;49.022;12.148;2023-07-13T15:36:49;26.70;32.30
792;DHT22;379;49.022;12.148;2023-07-13T15:39:17;26.70;35.10
792;DHT22;379;49.022;12.148;2023-07-13T15:41:44;26.80;36.10
792;DHT22;379;49.022;12.148;2023-07-13T15:44:23;27.00;36.20
792;DHT22;379;49.022;12.148;2023-07-13T15:46:50;27.20;36.70
792;DHT22;379;49.022;12.148;2023-07-13T15:49:20;27.30;36.50
792;DHT22;379;49.022;12.148;2023-07-13T15:51:48;27.30;36.80
792;DHT22;379;49.022;12.148;2023-07-13T15:54:16;27.30;36.00
792;DHT22;379;49.022;12.148;2023-07-13T15:56:48;27.30;36.00
792;DHT22;379;49.022;12.148;2023-07-13T15:59:18;27.20;36.00
792;DHT22;379;49.022;12.148;2023-07-13T16:01:44;27.20;35.10
792;DHT22;379;49.022;12.148;2023-07-13T16:04:12;27.10;33.00
792;DHT22;379;49.022;12.148;2023-07-13T16:06:41;27.00;32.40
792;DHT22;379;49.022;12.148;2023-07-13T16:09:10;27.00;33.90
792;DHT22;379;49.022;12.148;2023-07-13T16:11:40;27.20;34.90
792;DHT22;379;49.022;12.148;2023-07-13T16:14:08;27.20;33.80
792;DHT22;379;49.022;12.148;2023-07-13T16:16:38;27.10;33.50
792;DHT22;379;49.022;12.148;2023-07-13T16:19:05;26.80;32.10
792;DHT22;379;49.022;12.148;2023-07-13T16:21:35;26.50;32.60
792;DHT22;379;49.022;12.148;2023-07-13T16:24:04;26.40;33.70
792;DHT22;379;49.022;12.148;2023-07-13T16:26:33;26.20;33.50
792;DHT22;379;49.022;12.148;2023-07-13T16:29:11;26.10;34.10
792;DHT22;379;49.022;12.148;2023-07-13T16:31:37;25.90;34.80